Time;durP1;ratioP1;P1;durP2;ratioP2;P2;SDS_P1;SDS_P2;PMS_P1;PMS_P2;Temp;Humidity;BMP_temperature;BMP_pressure;BME280_temperature;BME280_humidity;BME280_pressure;Samples;Min_cycle;Max_cycle;Signal;HPM_P1;HPM_P2
2022/09/18 00:00:34;;;;;;;3.83;1.10;;;19.00;56.70;;;;;;4087892;28;20401;-36
2022/09/18 00:02:57;;;;;;;29.52;1.33;;;19.10;56.60;;;;;;4089202;28;20046;-37
2022/09/18 00:05:20;;;;;;;6.43;0.73;;;19.10;56.60;;;;;;4095976;28;20055;-38
2022/09/18 00:07:42;;;;;;;3.75;0.60;;;19.10;55.90;;;;;;4090761;28;20035;-38
2022/09/18 00:10:05;;;;;;;7.40;1.30;;;19.10;54.30;;;;;;4088931;28;20039;-43
2022/09/18 00:12:28;;;;;;;4.05;1.23;;;19.00;54.40;;;;;;4095019;28;20039;-45
2022/09/18 00:14:51;;;;;;;4.35;0.50;;;19.00;54.40;;;;;;4092989;28;20049;-45
2022/09/18 00:17:13;;;;;;;5.85;1.02;;;19.00;54.40;;;;;;4089843;28;20047;-43
2022/09/18 00:19:36;;;;;;;1.73;0.75;;;19.00;54.50;;;;;;4093587;28;20242;-42
2022/09/18 00:21:59;;;;;;;1.20;0.70;;;19.00;54.40;;;;;;4091444;28;20420;-43
2022/09/18 00:24:23;;;;;;;2.13;0.60;;;18.90;54.40;;;;;;4092944;28;20048;-44
2022/09/18 00:26:47;;;;;;;1.08;0.45;;;19.00;54.50;;;;;;4088263;28;20043;-44
2022/09/18 00:29:11;;;;;;;1.58;0.63;;;19.00;54.40;;;;;;4089586;28;20106;-43
2022/09/18 00:31:35;;;;;;;2.58;0.65;;;19.00;54.40;;;;;;4085202;28;20523;-43
2022/09/18 00:33:58;;;;;;;;;;;18.90;54.20;;;;;;4090082;28;20039;-43
2022/09/18 00:36:23;;;;;;;3.80;0.60;;;18.90;54.30;;;;;;4091394;28;20401;-46
2022/09/18 00:38:46;;;;;;;2.20;0.80;;;18.90;54.20;;;;;;4088489;28;20036;-47
2022/09/18 00:41:23;;;;;;;1.50;0.60;;;18.90;54.00;;;;;;4091919;28;20043;-43
2022/09/18 00:43:45;;;;;;;0.90;0.60;;;18.90;54.00;;;;;;4086557;28;20534;-45
2022/09/18 00:46:29;;;;;;;1.70;0.80;;;18.90;53.90;;;;;;4082410;28;20055;-44
2022/09/18 00:49:22;;;;;;;0.52;0.50;;;18.90;53.90;;;;;;4092406;28;20047;-44
2022/09/18 00:51:47;;;;;;;0.77;0.55;;;18.90;53.80;;;;;;4097000;28;20043;-42
2022/09/18 00:54:12;;;;;;;2.60;0.70;;;18.90;53.60;;;;;;4090002;28;20035;-43
2022/09/18 00:56:36;;;;;;;1.65;0.50;;;18.90;53.60;;;;;;4090681;28;20051;-43
2022/09/18 00:58:59;;;;;;;1.60;0.50;;;18.90;53.60;;;;;;4086983;28;20123;-43
2022/09/18 01:01:21;;;;;;;0.77;0.57;;;18.90;53.50;;;;;;4092317;28;20034;-46
2022/09/18 01:03:44;;;;;;;5.00;0.70;;;18.90;53.60;;;;;;4085239;28;20114;-43
2022/09/18 01:06:22;;;;;;;0.93;0.60;;;18.90;53.60;;;;;;4095157;28;20051;-44
2022/09/18 01:09:07;;;;;;;1.38;0.60;;;18.90;53.50;;;;;;4092136;28;20079;-45
2022/09/18 01:11:33;;;;;;;1.23;0.70;;;18.90;53.50;;;;;;4086780;28;20198;-46
2022/09/18 01:14:26;;;;;;;1.58;0.47;;;18.90;53.50;;;;;;4094474;28;20043;-44
2022/09/18 01:17:19;;;;;;;1.65;0.65;;;18.90;53.50;;;;;;4085942;28;20040;-46
2022/09/18 01:20:05;;;;;;;3.30;0.80;;;18.90;53.50;;;;;;4091346;28;20126;-42
2022/09/18 01:23:04;;;;;;;1.63;0.60;;;18.90;53.40;;;;;;4091933;28;20459;-43
2022/09/18 01:25:53;;;;;;;1.30;0.60;;;18.90;53.40;;;;;;4092238;28;20051;-46
2022/09/18 01:28:52;;;;;;;1.48;0.95;;;19.00;53.30;;;;;;4064832;28;20039;-46
2022/09/18 01:31:30;;;;;;;1.70;0.63;;;19.00;53.20;;;;;;4089198;28;20043;-43
2022/09/18 01:33:56;;;;;;;0.80;0.50;;;19.00;53.20;;;;;;4087601;28;20055;-42
2022/09/18 01:36:23;;;;;;;3.08;1.13;;;19.00;53.20;;;;;;4093455;28;20027;-44
2022/09/18 01:38:54;;;;;;;2.15;0.77;;;19.00;53.10;;;;;;4094840;28;20071;-44
2022/09/18 01:41:36;;;;;;;2.78;0.80;;;19.00;53.00;;;;;;4088336;28;20094;-44
2022/09/18 01:44:15;;;;;;;1.70;0.80;;;19.00;53.10;;;;;;4093170;28;20043;-43
2022/09/18 01:46:42;;;;;;;0.98;0.70;;;19.00;52.90;;;;;;4089663;28;20058;-45
2022/09/18 01:49:18;;;;;;;0.50;0.50;;;19.00;52.90;;;;;;4089963;28;20114;-46
2022/09/18 01:52:25;;;;;;;1.08;0.80;;;19.00;52.90;;;;;;4094155;28;20050;-47
2022/09/18 01:54:51;;;;;;;0.88;0.60;;;19.00;52.80;;;;;;4089324;28;20038;-43
2022/09/18 01:57:22;;;;;;;1.10;0.63;;;19.10;52.70;;;;;;4090306;28;20043;-44
2022/09/18 02:00:00;;;;;;;1.90;0.90;;;19.10;52.70;;;;;;4091265;28;20039;-45
2022/09/18 02:02:42;;;;;;;1.23;0.70;;;19.10;52.70;;;;;;4088734;28;20058;-46
2022/09/18 02:05:09;;;;;;;1.30;0.80;;;19.10;52.60;;;;;;4083548;28;20036;-43
2022/09/18 02:07:41;;;;;;;1.67;0.60;;;19.10;52.50;;;;;;4096107;28;20051;-48
2022/09/18 02:10:05;;;;;;;0.65;0.50;;;19.10;52.50;;;;;;4090688;28;20073;-44
2022/09/18 02:12:28;;;;;;;;;;;19.20;52.50;;;;;;4093979;28;20045;-43
2022/09/18 02:14:55;;;;;;;1.02;0.60;;;19.20;52.40;;;;;;4095519;28;19933;-45
2022/09/18 02:17:30;;;;;;;1.83;0.88;;;19.20;52.30;;;;;;4091469;28;20554;-44
2022/09/18 02:20:01;;;;;;;1.52;0.70;;;19.20;52.30;;;;;;4091910;28;21274;-45
2022/09/18 02:22:26;;;;;;;1.48;0.60;;;19.20;52.10;;;;;;4093779;28;20467;-47
2022/09/18 02:24:52;;;;;;;0.50;0.50;;;19.20;52.20;;;;;;4097532;28;20035;-50
2022/09/18 02:27:17;;;;;;;1.05;0.50;;;19.20;52.10;;;;;;4089791;28;20047;-46
2022/09/18 02:29:42;;;;;;;1.00;0.50;;;19.20;51.90;;;;;;4090929;28;20054;-46
2022/09/18 02:32:05;;;;;;;0.63;0.50;;;19.20;52.10;;;;;;4083665;28;20055;-49
2022/09/18 02:34:29;;;;;;;0.95;0.70;;;19.20;51.80;;;;;;4084311;28;20278;-44
2022/09/18 02:37:26;;;;;;;1.60;0.47;;;19.30;51.70;;;;;;4085726;28;20055;-43
2022/09/18 02:40:27;;;;;;;1.02;0.70;;;19.30;51.60;;;;;;4085649;28;20404;-45
2022/09/18 02:43:26;;;;;;;0.88;0.47;;;19.30;51.40;;;;;;4086415;28;20047;-44
2022/09/18 02:46:17;;;;;;;0.60;0.52;;;19.30;51.20;;;;;;4072855;28;20055;-43
2022/09/18 02:49:13;;;;;;;1.38;0.60;;;19.40;51.20;;;;;;4074016;28;20039;-44
2022/09/18 02:51:42;;;;;;;3.40;1.10;;;19.40;50.90;;;;;;4077769;28;20043;-47
2022/09/18 02:54:36;;;;;;;1.45;0.70;;;19.40;50.70;;;;;;4085938;28;20031;-44
2022/09/18 02:57:14;;;;;;;1.30;0.50;;;19.40;51.20;;;;;;4085745;28;20043;-42
2022/09/18 02:59:41;;;;;;;4.15;1.10;;;19.40;50.40;;;;;;4090462;28;20191;-44
2022/09/18 03:02:05;;;;;;;3.13;0.88;;;19.50;50.30;;;;;;4088705;28;20048;-43
2022/09/18 03:04:28;;;;;;;0.80;0.50;;;19.50;50.10;;;;;;4082328;28;20039;-44
2022/09/18 03:06:51;;;;;;;1.40;0.70;;;19.50;50.20;;;;;;4082029;28;20133;-43
2022/09/18 03:09:17;;;;;;;0.65;0.50;;;19.50;50.00;;;;;;4079646;28;20049;-42
2022/09/18 03:11:40;;;;;;;2.30;0.60;;;19.60;50.00;;;;;;4074859;28;20043;-43
2022/09/18 03:14:03;;;;;;;1.13;0.68;;;19.60;50.00;;;;;;4083143;28;20047;-44
2022/09/18 03:16:26;;;;;;;1.73;0.65;;;19.60;49.90;;;;;;4081985;28;20480;-46
2022/09/18 03:18:49;;;;;;;2.30;1.05;;;19.60;49.90;;;;;;4078438;28;20039;-44
2022/09/18 03:21:12;;;;;;;0.98;0.70;;;19.70;50.00;;;;;;4083977;28;20058;-44
2022/09/18 03:23:35;;;;;;;2.13;0.85;;;19.70;50.00;;;;;;4082419;28;20097;-47
2022/09/18 03:25:58;;;;;;;1.25;0.68;;;19.80;50.00;;;;;;4085546;28;20053;-46
2022/09/18 03:28:21;;;;;;;1.85;0.57;;;19.80;49.90;;;;;;4082282;28;20126;-44
2022/09/18 03:30:45;;;;;;;0.98;0.60;;;19.80;49.80;;;;;;4093361;28;20043;-45
2022/09/18 03:33:07;;;;;;;2.67;0.85;;;19.90;49.80;;;;;;4081791;28;20131;-47
2022/09/18 03:35:31;;;;;;;1.33;0.50;;;19.90;50.00;;;;;;4085597;28;20035;-42
2022/09/18 03:37:54;;;;;;;0.85;0.50;;;20.00;49.60;;;;;;4091563;28;20047;-43
2022/09/18 03:40:17;;;;;;;1.65;0.60;;;20.00;49.50;;;;;;4088813;28;20039;-42
2022/09/18 03:42:41;;;;;;;0.60;0.43;;;20.10;49.40;;;;;;4082248;28;20065;-46
2022/09/18 03:45:04;;;;;;;;;;;20.10;49.30;;;;;;4085869;28;20593;-44
2022/09/18 03:47:30;;;;;;;2.30;0.90;;;20.20;49.30;;;;;;4088418;28;20373;-42
2022/09/18 03:49:52;;;;;;;1.95;0.70;;;20.20;49.20;;;;;;4082700;28;20388;-44
2022/09/18 03:52:15;;;;;;;1.08;0.60;;;20.20;49.10;;;;;;4086115;28;20095;-46
2022/09/18 03:54:38;;;;;;;1.98;0.57;;;20.30;49.00;;;;;;4086229;28;20048;-44
2022/09/18 03:57:01;;;;;;;1.75;0.50;;;20.30;48.70;;;;;;4091772;28;20194;-46
2022/09/18 03:59:24;;;;;;;1.27;0.50;;;20.40;48.50;;;;;;4089885;28;20039;-45
2022/09/18 04:01:47;;;;;;;0.98;0.60;;;20.50;48.40;;;;;;4083687;28;20042;-42
2022/09/18 04:04:10;;;;;;;1.77;0.50;;;20.50;48.20;;;;;;4083577;28;20150;-48
2022/09/18 04:06:36;;;;;;;1.30;0.57;;;20.60;48.20;;;;;;4077720;28;20400;-44
2022/09/18 04:09:02;;;;;;;0.95;0.57;;;20.70;48.10;;;;;;4077395;28;20035;-46
2022/09/18 04:11:24;;;;;;;1.17;0.50;;;20.70;48.00;;;;;;4088649;28;20487;-42
2022/09/18 04:13:47;;;;;;;0.65;0.57;;;20.80;47.90;;;;;;4083930;28;20036;-45
2022/09/18 04:16:10;;;;;;;0.47;0.43;;;20.90;47.80;;;;;;4086622;28;20039;-43
2022/09/18 04:18:33;;;;;;;0.70;0.60;;;20.90;47.80;;;;;;4086952;28;20059;-44
2022/09/18 04:20:56;;;;;;;0.93;0.65;;;21.00;47.80;;;;;;4087371;28;20051;-45
2022/09/18 04:23:19;;;;;;;1.08;0.80;;;21.10;47.80;;;;;;4088056;28;20063;-43
2022/09/18 04:25:43;;;;;;;0.95;0.55;;;21.10;47.80;;;;;;4088070;28;20098;-44
2022/09/18 04:28:06;;;;;;;0.82;0.60;;;21.20;47.60;;;;;;4082751;28;20101;-43
2022/09/18 04:30:29;;;;;;;1.63;0.60;;;21.30;47.40;;;;;;4079795;28;20589;-46
2022/09/18 04:32:51;;;;;;;1.35;0.65;;;21.40;47.70;;;;;;4089319;28;20055;-41
2022/09/18 04:35:15;;;;;;;0.63;0.60;;;21.40;47.50;;;;;;4086231;28;20043;-44
2022/09/18 04:37:38;;;;;;;0.70;0.40;;;21.50;47.40;;;;;;4085363;28;20530;-46
2022/09/18 04:40:01;;;;;;;0.40;0.40;;;21.60;47.30;;;;;;4081021;28;20046;-44
2022/09/18 04:42:24;;;;;;;0.75;0.40;;;21.60;47.40;;;;;;4085870;28;20301;-42
2022/09/18 04:44:46;;;;;;;0.77;0.43;;;21.70;47.20;;;;;;4090284;28;20102;-43
2022/09/18 04:47:09;;;;;;;1.65;0.77;;;21.80;47.20;;;;;;4087045;28;20058;-45
2022/09/18 04:49:32;;;;;;;1.60;0.65;;;21.90;47.20;;;;;;4079402;28;20046;-46
2022/09/18 04:51:54;;;;;;;1.30;0.70;;;21.90;47.10;;;;;;4081217;28;20044;-49
2022/09/18 04:54:17;;;;;;;0.30;0.30;;;22.00;47.30;;;;;;4092756;28;20174;-45
2022/09/18 04:56:40;;;;;;;1.35;0.55;;;22.10;46.90;;;;;;4091464;28;20126;-46
2022/09/18 04:59:03;;;;;;;0.40;0.35;;;22.10;47.10;;;;;;4093061;28;20039;-48
2022/09/18 05:01:26;;;;;;;0.63;0.50;;;22.20;47.00;;;;;;4085598;28;20412;-42
2022/09/18 05:03:49;;;;;;;1.15;0.43;;;22.20;46.80;;;;;;4091953;28;20032;-44
2022/09/18 05:06:11;;;;;;;1.20;0.50;;;22.30;46.90;;;;;;4084018;28;20075;-43
2022/09/18 05:08:34;;;;;;;0.38;0.38;;;22.40;46.70;;;;;;4086530;28;20035;-41
2022/09/18 05:10:57;;;;;;;0.63;0.43;;;22.40;46.90;;;;;;4087767;28;20055;-44
2022/09/18 05:13:20;;;;;;;1.02;0.60;;;22.50;47.00;;;;;;4080570;28;20109;-45
2022/09/18 05:15:43;;;;;;;0.88;0.50;;;22.50;47.00;;;;;;4089747;28;20411;-43
2022/09/18 05:18:07;;;;;;;1.02;0.68;;;22.60;47.00;;;;;;4085840;28;20330;-47
2022/09/18 05:20:32;;;;;;;1.00;0.57;;;22.60;46.90;;;;;;4082223;28;20126;-45
2022/09/18 05:22:55;;;;;;;0.40;0.40;;;22.70;46.90;;;;;;4086312;28;20035;-48
2022/09/18 05:25:19;;;;;;;1.05;0.57;;;22.70;46.80;;;;;;4089400;28;20547;-43
2022/09/18 05:27:41;;;;;;;;;;;22.80;46.80;;;;;;4085239;28;20050;-43
2022/09/18 05:30:04;;;;;;;1.98;0.60;;;22.70;46.70;;;;;;4082613;28;19910;-44
2022/09/18 05:32:27;;;;;;;1.00;0.80;;;22.80;46.70;;;;;;4085055;28;20049;-45
2022/09/18 05:34:50;;;;;;;0.95;0.60;;;22.80;46.60;;;;;;4076569;28;20035;-43
2022/09/18 05:37:13;;;;;;;0.85;0.47;;;22.80;46.60;;;;;;4080161;28;20763;-46
2022/09/18 05:39:36;;;;;;;1.10;0.60;;;22.80;46.60;;;;;;4087170;28;20039;-45
2022/09/18 05:41:59;;;;;;;0.63;0.40;;;22.80;46.60;;;;;;4085246;28;20473;-44
2022/09/18 05:44:22;;;;;;;0.47;0.47;;;22.80;46.50;;;;;;4085129;28;20407;-44
2022/09/18 05:46:47;;;;;;;0.95;0.68;;;22.80;46.50;;;;;;4079300;28;20059;-48
2022/09/18 05:49:10;;;;;;;0.65;0.60;;;22.90;46.40;;;;;;4082202;28;20050;-44
2022/09/18 05:51:33;;;;;;;0.68;0.38;;;23.00;46.40;;;;;;4082328;28;20190;-48
2022/09/18 05:53:56;;;;;;;0.30;0.30;;;23.00;46.10;;;;;;4079372;28;20113;-46
2022/09/18 05:56:18;;;;;;;0.50;0.50;;;23.00;45.90;;;;;;4088771;28;20051;-48
2022/09/18 05:58:41;;;;;;;0.80;0.50;;;23.00;45.30;;;;;;4081763;28;20043;-45
2022/09/18 06:01:04;;;;;;;0.70;0.50;;;23.10;44.60;;;;;;4086922;28;20047;-48
2022/09/18 06:03:27;;;;;;;1.50;0.70;;;23.10;44.00;;;;;;4086248;28;20039;-46
2022/09/18 06:05:54;;;;;;;1.25;0.80;;;23.10;43.70;;;;;;4086141;28;20054;-44
2022/09/18 06:08:17;;;;;;;1.30;0.70;;;23.10;42.60;;;;;;4082552;28;20043;-42
2022/09/18 06:10:40;;;;;;;1.35;0.60;;;23.10;43.00;;;;;;4075757;28;20032;-49
2022/09/18 06:13:03;;;;;;;;;;;23.10;43.00;;;;;;4087531;28;20130;-45
2022/09/18 06:15:26;;;;;;;2.50;0.80;;;23.10;43.30;;;;;;4086167;28;19921;-46
2022/09/18 06:17:51;;;;;;;1.23;0.90;;;23.20;43.20;;;;;;4076093;28;20046;-46
2022/09/18 06:20:14;;;;;;;1.10;0.50;;;23.20;43.40;;;;;;4080477;28;20114;-43
2022/09/18 06:22:37;;;;;;;1.35;0.70;;;23.20;43.00;;;;;;4084148;28;20530;-45
2022/09/18 06:25:00;;;;;;;1.95;0.60;;;23.20;43.50;;;;;;4085093;28;20509;-48
2022/09/18 06:27:22;;;;;;;2.92;0.88;;;23.20;43.40;;;;;;4084216;28;20055;-44
2022/09/18 06:29:45;;;;;;;1.35;0.70;;;23.20;42.80;;;;;;4090774;28;20501;-45
2022/09/18 06:32:11;;;;;;;1.48;0.60;;;23.20;42.70;;;;;;4093406;28;20078;-44
2022/09/18 06:34:34;;;;;;;1.38;0.60;;;23.20;42.60;;;;;;4088146;28;20035;-43
2022/09/18 06:36:56;;;;;;;1.48;0.70;;;23.20;42.20;;;;;;4095140;28;20099;-46
2022/09/18 06:39:19;;;;;;;1.05;0.52;;;23.20;41.80;;;;;;4110338;28;20043;-43
2022/09/18 06:41:42;;;;;;;1.38;0.52;;;23.20;41.50;;;;;;4097221;28;20031;-45
2022/09/18 06:44:04;;;;;;;1.35;1.00;;;23.20;41.30;;;;;;4097578;28;20083;-46
2022/09/18 06:46:27;;;;;;;1.42;0.88;;;23.30;41.10;;;;;;4091849;28;20211;-46
2022/09/18 06:48:50;;;;;;;1.15;0.60;;;23.20;41.00;;;;;;4089129;28;20075;-43
2022/09/18 06:51:13;;;;;;;1.40;0.85;;;23.20;41.40;;;;;;4095847;28;20050;-46
2022/09/18 06:53:36;;;;;;;1.98;0.80;;;23.20;41.30;;;;;;4095261;28;20039;-43
2022/09/18 06:56:01;;;;;;;0.60;0.60;;;23.20;41.20;;;;;;4094620;28;20154;-42
2022/09/18 06:58:23;;;;;;;0.98;0.70;;;23.20;41.50;;;;;;4087551;28;20040;-43
2022/09/18 07:00:46;;;;;;;1.85;0.80;;;23.20;41.80;;;;;;4087439;28;20159;-42
2022/09/18 07:03:09;;;;;;;3.00;0.93;;;23.10;42.00;;;;;;4090260;28;20039;-47
2022/09/18 07:05:33;;;;;;;1.80;0.80;;;23.10;41.40;;;;;;4089075;28;20098;-42
2022/09/18 07:07:56;;;;;;;1.90;0.95;;;23.10;41.00;;;;;;4087170;28;20176;-43
2022/09/18 07:10:19;;;;;;;0.93;0.73;;;23.10;41.00;;;;;;4088749;28;20109;-42
2022/09/18 07:12:45;;;;;;;2.05;1.02;;;23.00;40.80;;;;;;4086771;28;20551;-43
2022/09/18 07:15:08;;;;;;;1.42;0.70;;;23.00;41.30;;;;;;4089819;28;20058;-42
2022/09/18 07:17:31;;;;;;;1.67;0.73;;;22.90;40.70;;;;;;4087278;28;20078;-45
2022/09/18 07:19:54;;;;;;;2.20;0.90;;;22.80;40.60;;;;;;4089593;28;20054;-42
2022/09/18 07:22:17;;;;;;;1.42;0.80;;;22.80;40.50;;;;;;4089747;28;20444;-42
2022/09/18 07:24:40;;;;;;;3.05;0.80;;;22.70;40.50;;;;;;4086168;28;20122;-42
2022/09/18 07:27:03;;;;;;;1.10;0.85;;;22.70;40.40;;;;;;4093744;28;20138;-45
2022/09/18 07:29:26;;;;;;;2.45;0.70;;;22.60;40.30;;;;;;4078287;28;20062;-43
2022/09/18 07:31:49;;;;;;;1.63;0.60;;;22.60;40.60;;;;;;4086992;28;20043;-42
2022/09/18 07:34:12;;;;;;;1.67;0.70;;;22.50;40.60;;;;;;4083598;28;20047;-43
2022/09/18 07:36:35;;;;;;;1.87;0.90;;;22.50;40.80;;;;;;4085665;28;20739;-43
2022/09/18 07:38:58;;;;;;;1.20;0.95;;;22.50;40.90;;;;;;4092019;28;20047;-44
2022/09/18 07:41:21;;;;;;;1.20;0.80;;;22.40;41.50;;;;;;4084299;28;20039;-42
2022/09/18 07:43:44;;;;;;;1.52;0.98;;;22.40;41.00;;;;;;4078304;28;20511;-44
2022/09/18 07:46:07;;;;;;;2.40;0.82;;;22.30;40.90;;;;;;4083223;28;20082;-42
2022/09/18 07:48:30;;;;;;;1.35;0.70;;;22.30;40.90;;;;;;4088806;28;20123;-47
2022/09/18 07:50:57;;;;;;;2.05;1.00;;;22.30;41.10;;;;;;4081981;28;20098;-43
2022/09/18 07:53:20;;;;;;;1.75;0.93;;;22.20;41.00;;;;;;4102413;28;20105;-44
2022/09/18 07:55:46;;;;;;;1.55;0.90;;;22.20;41.10;;;;;;4079312;28;20546;-44
2022/09/18 07:58:09;;;;;;;2.25;0.82;;;22.20;41.40;;;;;;4083695;28;20062;-43
2022/09/18 08:00:35;;;;;;;1.80;0.80;;;22.10;41.40;;;;;;4084446;28;20039;-44
2022/09/18 08:03:08;;;;;;;1.27;0.77;;;22.10;41.20;;;;;;4083039;28;20117;-43
2022/09/18 08:05:31;;;;;;;1.00;0.60;;;22.10;41.50;;;;;;4085367;28;20039;-44
2022/09/18 08:07:54;;;;;;;2.30;0.77;;;22.10;41.50;;;;;;4087417;28;20047;-45
2022/09/18 08:10:17;;;;;;;1.42;0.82;;;22.00;42.10;;;;;;4086696;28;20404;-47
2022/09/18 08:12:40;;;;;;;2.70;0.90;;;22.00;42.30;;;;;;4081875;28;20071;-43
2022/09/18 08:15:03;;;;;;;1.87;0.93;;;22.00;42.60;;;;;;4086895;28;20059;-43
2022/09/18 08:17:27;;;;;;;1.42;0.80;;;21.90;42.80;;;;;;4083475;28;20281;-43
2022/09/18 08:19:50;;;;;;;2.50;0.85;;;21.90;42.80;;;;;;4080844;28;20046;-43
2022/09/18 08:22:13;;;;;;;2.07;1.20;;;21.90;42.70;;;;;;4088969;28;20047;-43
2022/09/18 08:24:36;;;;;;;2.10;0.90;;;21.90;43.20;;;;;;4078333;29;20530;-45
2022/09/18 08:27:03;;;;;;;3.28;1.50;;;21.90;43.20;;;;;;4082479;28;20130;-46
2022/09/18 08:29:26;;;;;;;1.80;1.02;;;21.90;43.10;;;;;;4082496;28;20566;-43
2022/09/18 08:31:49;;;;;;;1.67;1.00;;;21.80;42.70;;;;;;4080446;28;20039;-45
2022/09/18 08:34:12;;;;;;;2.00;1.00;;;21.80;42.50;;;;;;4086476;28;20070;-43
2022/09/18 08:36:35;;;;;;;1.63;1.08;;;21.80;42.30;;;;;;4085901;28;20102;-43
2022/09/18 08:38:59;;;;;;;3.15;1.38;;;21.70;42.10;;;;;;4095714;28;20247;-45
2022/09/18 08:41:50;;;;;;;2.88;1.42;;;21.70;41.80;;;;;;4085551;28;20039;-44
2022/09/18 08:44:26;;;;;;;2.90;1.50;;;21.70;41.60;;;;;;4087200;28;20047;-46
2022/09/18 08:47:06;;;;;;;2.45;1.20;;;21.70;41.50;;;;;;4084256;28;20067;-44
2022/09/18 08:49:45;;;;;;;2.00;0.98;;;21.60;41.30;;;;;;4085042;28;20027;-45
2022/09/18 08:52:16;;;;;;;1.10;0.73;;;21.60;41.40;;;;;;4087781;28;20055;-43
2022/09/18 08:54:55;;;;;;;1.75;0.95;;;21.60;41.50;;;;;;4090196;28;20513;-44
2022/09/18 08:57:49;;;;;;;1.83;1.25;;;21.60;41.70;;;;;;4087860;28;20035;-43
2022/09/18 09:00:23;;;;;;;3.08;0.95;;;21.60;41.80;;;;;;4092207;28;20043;-44
2022/09/18 09:03:09;;;;;;;1.63;0.90;;;21.50;41.50;;;;;;4091017;28;20138;-44
2022/09/18 09:05:37;;;;;;;2.13;0.80;;;21.50;41.30;;;;;;4090569;28;20050;-44
2022/09/18 09:08:32;;;;;;;1.75;0.95;;;21.50;41.40;;;;;;4089678;28;20380;-46
2022/09/18 09:11:25;;;;;;;1.75;0.93;;;21.50;41.20;;;;;;4104233;28;20047;-44
2022/09/18 09:13:56;;;;;;;1.77;1.10;;;21.40;41.20;;;;;;4085958;28;20062;-44
2022/09/18 09:16:48;;;;;;;1.92;0.90;;;21.40;41.00;;;;;;4090478;28;20035;-43
2022/09/18 09:19:34;;;;;;;2.33;1.15;;;21.40;41.20;;;;;;4084342;28;20048;-43
2022/09/18 09:22:06;;;;;;;1.45;0.90;;;21.40;41.40;;;;;;4089596;28;20043;-45
2022/09/18 09:24:29;;;;;;;1.80;0.90;;;21.30;41.00;;;;;;4087320;28;20062;-43
2022/09/18 09:26:54;;;;;;;1.23;0.60;;;21.30;41.00;;;;;;4085673;28;20071;-43
2022/09/18 09:29:17;;;;;;;1.50;0.90;;;21.30;41.30;;;;;;4085766;28;20526;-43
2022/09/18 09:31:45;;;;;;;1.38;0.68;;;21.30;41.90;;;;;;4090524;28;20553;-43
2022/09/18 09:34:32;;;;;;;1.45;0.52;;;21.30;42.20;;;;;;4084442;28;20039;-42
2022/09/18 09:36:58;;;;;;;0.95;0.68;;;21.20;42.60;;;;;;4083045;28;20063;-43
2022/09/18 09:39:31;;;;;;;0.52;0.50;;;21.20;42.60;;;;;;4084649;28;20499;-44
2022/09/18 09:41:56;;;;;;;0.65;0.55;;;21.20;42.70;;;;;;4078779;28;20078;-43
2022/09/18 09:44:32;;;;;;;0.85;0.50;;;21.20;42.70;;;;;;4088197;28;20031;-43
2022/09/18 09:47:07;;;;;;;0.73;0.73;;;21.20;42.80;;;;;;4086905;28;20154;-45
2022/09/18 09:49:37;;;;;;;0.90;0.45;;;21.20;43.10;;;;;;4083576;28;20046;-44
2022/09/18 09:52:15;;;;;;;0.73;0.60;;;21.10;43.10;;;;;;4084286;28;20050;-45
2022/09/18 09:54:38;;;;;;;0.90;0.68;;;21.10;43.20;;;;;;4086733;28;20075;-46
2022/09/18 09:57:16;;;;;;;1.60;0.80;;;21.10;43.20;;;;;;4084687;28;20488;-43
2022/09/18 09:59:56;;;;;;;0.70;0.60;;;21.10;43.50;;;;;;4087111;28;20055;-45
2022/09/18 10:02:27;;;;;;;0.75;0.47;;;21.10;43.70;;;;;;4087778;28;20042;-43
2022/09/18 10:05:04;;;;;;;0.80;0.40;;;21.10;43.80;;;;;;4087152;28;20123;-45
2022/09/18 10:07:44;;;;;;;1.30;0.63;;;21.10;43.90;;;;;;4085990;28;20054;-43
2022/09/18 10:10:19;;;;;;;1.08;0.52;;;21.00;44.00;;;;;;4090612;28;20046;-44
2022/09/18 10:12:53;;;;;;;0.73;0.52;;;21.00;44.40;;;;;;4088626;28;20070;-44
2022/09/18 10:15:21;;;;;;;1.48;0.70;;;21.00;44.20;;;;;;4086642;28;20039;-44
2022/09/18 10:17:47;;;;;;;1.10;0.68;;;21.00;44.30;;;;;;4083285;28;20075;-46
2022/09/18 10:20:16;;;;;;;1.05;0.63;;;21.00;44.40;;;;;;4087988;28;20042;-44
2022/09/18 10:22:40;;;;;;;0.40;0.40;;;21.00;44.50;;;;;;4087755;28;20454;-44
2022/09/18 10:25:14;;;;;;;0.38;0.30;;;21.00;44.60;;;;;;4085895;28;20043;-47
2022/09/18 10:27:37;;;;;;;0.52;0.40;;;21.00;44.60;;;;;;4083974;28;20538;-43
2022/09/18 10:30:04;;;;;;;1.30;0.73;;;20.90;44.60;;;;;;4087336;28;20174;-46
2022/09/18 10:32:38;;;;;;;0.43;0.40;;;20.90;44.60;;;;;;4086492;28;20058;-43
2022/09/18 10:35:20;;;;;;;0.55;0.40;;;20.90;44.80;;;;;;4085123;28;20043;-44
2022/09/18 10:37:43;;;;;;;0.50;0.50;;;20.90;44.80;;;;;;4080477;28;20097;-43
2022/09/18 10:40:29;;;;;;;0.80;0.50;;;20.90;44.70;;;;;;4082606;28;21326;-43
2022/09/18 10:42:54;;;;;;;0.43;0.43;;;20.90;44.70;;;;;;4088778;28;20333;-44
2022/09/18 10:45:40;;;;;;;0.85;0.57;;;20.90;44.70;;;;;;4086514;28;20048;-43
2022/09/18 10:48:19;;;;;;;1.08;0.40;;;20.80;44.60;;;;;;4092604;28;20079;-43
2022/09/18 10:51:02;;;;;;;1.27;0.47;;;20.90;44.60;;;;;;4087097;28;20054;-43
2022/09/18 10:53:32;;;;;;;0.70;0.60;;;20.80;44.70;;;;;;4092585;28;20043;-43
2022/09/18 10:56:01;;;;;;;0.40;0.40;;;20.80;44.70;;;;;;4091397;28;20074;-45
2022/09/18 10:58:29;;;;;;;0.80;0.50;;;20.80;44.60;;;;;;4090019;28;20097;-44
2022/09/18 11:01:01;;;;;;;0.88;0.47;;;20.80;44.60;;;;;;4092279;28;20107;-44
2022/09/18 11:03:37;;;;;;;0.82;0.52;;;20.80;44.70;;;;;;4084960;28;20106;-43
2022/09/18 11:06:03;;;;;;;0.63;0.47;;;20.80;44.70;;;;;;4093378;28;20059;-44
2022/09/18 11:08:33;;;;;;;0.65;0.32;;;20.80;44.80;;;;;;4095591;28;20329;-44
2022/09/18 11:11:05;;;;;;;0.98;0.43;;;20.80;44.80;;;;;;4089538;28;20563;-45
2022/09/18 11:13:30;;;;;;;1.48;0.40;;;20.70;44.80;;;;;;4087926;28;20040;-44
2022/09/18 11:15:56;;;;;;;0.80;0.63;;;20.80;44.90;;;;;;4088306;28;20043;-44
2022/09/18 11:18:19;;;;;;;1.15;0.50;;;20.70;44.90;;;;;;4089458;28;20043;-44
2022/09/18 11:20:47;;;;;;;0.77;0.55;;;20.70;45.00;;;;;;4092669;28;20074;-42
2022/09/18 11:23:30;;;;;;;0.40;0.40;;;20.70;45.00;;;;;;4091297;28;20582;-44
2022/09/18 11:26:10;;;;;;;0.73;0.60;;;20.70;45.00;;;;;;4093833;28;20055;-43
2022/09/18 11:28:33;;;;;;;1.13;0.50;;;20.70;45.10;;;;;;4092320;28;20066;-44
2022/09/18 11:31:13;;;;;;;1.10;0.70;;;20.70;45.00;;;;;;4092281;28;20109;-43
2022/09/18 11:33:57;;;;;;;1.08;0.57;;;20.60;45.10;;;;;;4093340;28;20046;-44
2022/09/18 11:36:29;;;;;;;1.42;0.45;;;20.60;45.10;;;;;;4093092;28;20338;-42
2022/09/18 11:38:53;;;;;;;0.80;0.57;;;20.70;45.10;;;;;;4089718;28;20051;-42
2022/09/18 11:41:35;;;;;;;0.70;0.60;;;20.70;45.20;;;;;;4091855;28;20046;-44
2022/09/18 11:44:04;;;;;;;1.45;0.80;;;20.60;45.30;;;;;;4097262;28;20099;-43
2022/09/18 11:47:03;;;;;;;1.25;0.60;;;20.60;45.20;;;;;;4088932;28;20078;-42
2022/09/18 11:49:31;;;;;;;1.10;0.60;;;20.60;45.30;;;;;;4085438;28;20042;-41
2022/09/18 11:52:01;;;;;;;1.85;0.40;;;20.60;45.30;;;;;;4088763;28;20559;-41
2022/09/18 11:54:51;;;;;;;1.40;0.60;;;20.60;45.40;;;;;;4095371;28;20050;-42
2022/09/18 11:57:26;;;;;;;0.40;0.40;;;20.60;45.40;;;;;;4094198;28;20123;-41
2022/09/18 11:59:58;;;;;;;1.23;0.50;;;20.50;45.40;;;;;;4095722;28;20121;-43
2022/09/18 12:02:43;;;;;;;0.90;0.50;;;20.50;45.40;;;;;;4093444;28;20043;-43
2022/09/18 12:05:29;;;;;;;0.75;0.65;;;20.50;45.40;;;;;;4086232;28;20039;-43
2022/09/18 12:08:19;;;;;;;0.40;0.40;;;20.50;45.50;;;;;;4081599;28;20083;-44
2022/09/18 12:11:03;;;;;;;0.98;0.57;;;20.50;45.50;;;;;;4093135;28;20050;-43
2022/09/18 12:13:45;;;;;;;1.00;0.50;;;20.50;45.50;;;;;;4094171;28;20035;-42
2022/09/18 12:16:44;;;;;;;1.15;0.65;;;20.50;45.50;;;;;;4087986;28;20134;-44
2022/09/18 12:19:20;;;;;;;1.73;0.63;;;20.40;45.60;;;;;;4087260;28;20448;-47
2022/09/18 12:21:55;;;;;;;0.98;0.70;;;20.40;45.70;;;;;;4088765;28;20039;-46
2022/09/18 12:24:18;;;;;;;0.73;0.60;;;20.40;45.50;;;;;;4086012;28;20063;-42
2022/09/18 12:27:05;;;;;;;0.47;0.43;;;20.40;45.70;;;;;;4093207;28;20431;-44
2022/09/18 12:29:43;;;;;;;0.98;0.70;;;20.40;45.70;;;;;;4087314;28;20035;-43
2022/09/18 12:32:26;;;;;;;0.50;0.40;;;20.40;45.80;;;;;;4089062;28;20047;-42
2022/09/18 12:35:09;;;;;;;0.88;0.70;;;20.40;45.70;;;;;;4077808;28;20099;-44
2022/09/18 12:38:08;;;;;;;0.93;0.70;;;20.40;45.80;;;;;;4082684;28;20882;-47
2022/09/18 12:40:31;;;;;;;6.55;1.02;;;20.30;45.90;;;;;;4083661;28;20031;-45
2022/09/18 12:43:29;;;;;;;2.38;0.90;;;20.30;46.30;;;;;;4081995;28;20527;-48
2022/09/18 12:45:51;;;;;;;4.95;1.00;;;20.30;46.50;;;;;;4038385;29;20048;-46
2022/09/18 12:48:55;;;;;;;2.03;0.90;;;20.30;46.80;;;;;;4078569;28;20082;-45
2022/09/18 12:51:41;;;;;;;3.95;0.65;;;20.40;47.00;;;;;;4084977;28;20066;-47
2022/09/18 12:54:24;;;;;;;2.63;0.63;;;20.40;47.10;;;;;;4087034;28;20106;-45
2022/09/18 12:56:58;;;;;;;3.65;0.93;;;20.40;47.20;;;;;;4087513;28;20042;-46
2022/09/18 12:59:57;;;;;;;5.13;0.77;;;20.40;47.30;;;;;;4082998;28;20487;-44